LIMW/AOT METAR and TAF weather

Enter ICAO airport designator
Station Type Date Time Source
LIMW METAR 2022/01/19 16:20 UTC NOAA

LIMW 191620Z AUTO VRB01KT 9999 NCD 01/M05 Q1025


Station Type Date Time Source
LIMW Decoded METAR 2022/01/19 16:20 UTC NOAA

Station name not available
Jan 19, 2022 - 11:20 AM EST / 2022.01.19 1620 UTC
Wind: Variable at 1 MPH (1 KT):0
Visibility: greater than 7 mile(s):0
Temperature: 33 F (1 C)
Dew Point: 23 F (-5 C)
Relative Humidity: 64%
Pressure (altimeter): 30.27 in. Hg (1025 hPa)
ob: LIMW 191620Z AUTO VRB01KT 9999 NCD 01/M05 Q1025
cycle: 16

Station Type Date Time Source
LIMW TAF UTC NOAA

Error!

Example: see airport list